sensor_id;sensor_type;location;lat;lon;timestamp;P1;durP1;ratioP1;P2;durP2;ratioP2
33900;SDS011;20193;49.810;6.418;2022-08-03T00:01:28;3.58;;;3.38;;
33900;SDS011;20193;49.810;6.418;2022-08-03T00:03:54;3.38;;;3.10;;
33900;SDS011;20193;49.810;6.418;2022-08-03T00:06:19;3.08;;;2.88;;
33900;SDS011;20193;49.810;6.418;2022-08-03T00:08:45;3.20;;;3.00;;
33900;SDS011;20193;49.810;6.418;2022-08-03T00:11:11;3.28;;;2.95;;
33900;SDS011;20193;49.810;6.418;2022-08-03T00:13:36;3.33;;;3.00;;
33900;SDS011;20193;49.810;6.418;2022-08-03T00:16:02;3.30;;;3.10;;
33900;SDS011;20193;49.810;6.418;2022-08-03T00:18:28;3.38;;;3.17;;
33900;SDS011;20193;49.810;6.418;2022-08-03T00:20:53;3.33;;;3.03;;
33900;SDS011;20193;49.810;6.418;2022-08-03T00:23:19;3.10;;;3.00;;
33900;SDS011;20193;49.810;6.418;2022-08-03T00:25:45;3.28;;;3.08;;
33900;SDS011;20193;49.810;6.418;2022-08-03T00:28:11;3.60;;;3.40;;
33900;SDS011;20193;49.810;6.418;2022-08-03T00:30:36;3.35;;;3.05;;
33900;SDS011;20193;49.810;6.418;2022-08-03T00:33:02;3.45;;;3.25;;
33900;SDS011;20193;49.810;6.418;2022-08-03T00:35:28;3.90;;;3.42;;
33900;SDS011;20193;49.810;6.418;2022-08-03T00:37:54;3.20;;;3.00;;
33900;SDS011;20193;49.810;6.418;2022-08-03T00:40:20;3.58;;;3.38;;
33900;SDS011;20193;49.810;6.418;2022-08-03T00:45:17;4.18;;;3.55;;
33900;SDS011;20193;49.810;6.418;2022-08-03T00:47:44;3.05;;;2.85;;
33900;SDS011;20193;49.810;6.418;2022-08-03T00:50:10;3.60;;;3.30;;
33900;SDS011;20193;49.810;6.418;2022-08-03T00:52:36;3.60;;;3.35;;
33900;SDS011;20193;49.810;6.418;2022-08-03T00:55:02;3.10;;;2.90;;
33900;SDS011;20193;49.810;6.418;2022-08-03T00:57:31;3.70;;;3.20;;
33900;SDS011;20193;49.810;6.418;2022-08-03T00:59:57;3.90;;;3.33;;
33900;SDS011;20193;49.810;6.418;2022-08-03T01:02:27;3.70;;;3.50;;
33900;SDS011;20193;49.810;6.418;2022-08-03T01:04:53;3.78;;;3.58;;
33900;SDS011;20193;49.810;6.418;2022-08-03T01:07:21;3.75;;;3.47;;
33900;SDS011;20193;49.810;6.418;2022-08-03T01:10:01;3.35;;;3.20;;
33900;SDS011;20193;49.810;6.418;2022-08-03T01:12:36;4.05;;;3.80;;
33900;SDS011;20193;49.810;6.418;2022-08-03T01:17:58;4.55;;;4.00;;
33900;SDS011;20193;49.810;6.418;2022-08-03T01:20:33;4.35;;;4.05;;
33900;SDS011;20193;49.810;6.418;2022-08-03T01:31:28;4.07;;;3.83;;
33900;SDS011;20193;49.810;6.418;2022-08-03T01:34:01;4.30;;;4.10;;
33900;SDS011;20193;49.810;6.418;2022-08-03T01:36:31;4.35;;;4.13;;
33900;SDS011;20193;49.810;6.418;2022-08-03T01:39:01;3.90;;;3.70;;
33900;SDS011;20193;49.810;6.418;2022-08-03T01:41:32;4.05;;;3.85;;
33900;SDS011;20193;49.810;6.418;2022-08-03T01:44:09;4.22;;;3.85;;
33900;SDS011;20193;49.810;6.418;2022-08-03T01:46:36;4.32;;;4.13;;
33900;SDS011;20193;49.810;6.418;2022-08-03T01:49:06;3.92;;;3.72;;
33900;SDS011;20193;49.810;6.418;2022-08-03T01:51:38;3.78;;;3.58;;
33900;SDS011;20193;49.810;6.418;2022-08-03T01:54:07;4.47;;;4.13;;
33900;SDS011;20193;49.810;6.418;2022-08-03T01:56:35;4.32;;;4.03;;
33900;SDS011;20193;49.810;6.418;2022-08-03T01:59:04;4.30;;;4.10;;
33900;SDS011;20193;49.810;6.418;2022-08-03T02:01:32;4.40;;;4.00;;
33900;SDS011;20193;49.810;6.418;2022-08-03T02:04:00;4.78;;;4.35;;
33900;SDS011;20193;49.810;6.418;2022-08-03T02:06:28;4.10;;;3.90;;
33900;SDS011;20193;49.810;6.418;2022-08-03T02:08:56;5.05;;;4.65;;
33900;SDS011;20193;49.810;6.418;2022-08-03T02:11:23;4.65;;;4.35;;
33900;SDS011;20193;49.810;6.418;2022-08-03T02:13:49;4.70;;;4.50;;
33900;SDS011;20193;49.810;6.418;2022-08-03T02:16:16;5.03;;;4.70;;
33900;SDS011;20193;49.810;6.418;2022-08-03T02:18:43;4.40;;;4.20;;
33900;SDS011;20193;49.810;6.418;2022-08-03T02:21:11;4.72;;;4.35;;
33900;SDS011;20193;49.810;6.418;2022-08-03T02:23:38;5.22;;;4.50;;
33900;SDS011;20193;49.810;6.418;2022-08-03T02:26:06;4.25;;;4.03;;
33900;SDS011;20193;49.810;6.418;2022-08-03T02:28:36;5.18;;;4.60;;
33900;SDS011;20193;49.810;6.418;2022-08-03T02:31:06;4.70;;;4.30;;
33900;SDS011;20193;49.810;6.418;2022-08-03T02:33:43;4.60;;;4.28;;
33900;SDS011;20193;49.810;6.418;2022-08-03T02:36:27;5.00;;;4.70;;
33900;SDS011;20193;49.810;6.418;2022-08-03T02:38:56;4.72;;;4.32;;
33900;SDS011;20193;49.810;6.418;2022-08-03T02:41:27;4.68;;;4.38;;
33900;SDS011;20193;49.810;6.418;2022-08-03T02:43:55;4.57;;;4.28;;
33900;SDS011;20193;49.810;6.418;2022-08-03T02:46:24;9.20;;;4.72;;
33900;SDS011;20193;49.810;6.418;2022-08-03T02:48:56;4.53;;;4.32;;
33900;SDS011;20193;49.810;6.418;2022-08-03T02:51:29;4.57;;;4.28;;
33900;SDS011;20193;49.810;6.418;2022-08-03T02:53:56;4.88;;;4.47;;
33900;SDS011;20193;49.810;6.418;2022-08-03T02:56:28;5.00;;;4.70;;
33900;SDS011;20193;49.810;6.418;2022-08-03T02:58:55;5.03;;;4.72;;
33900;SDS011;20193;49.810;6.418;2022-08-03T03:01:23;4.68;;;4.20;;
33900;SDS011;20193;49.810;6.418;2022-08-03T03:03:51;5.03;;;4.68;;
33900;SDS011;20193;49.810;6.418;2022-08-03T03:06:18;4.95;;;4.68;;
33900;SDS011;20193;49.810;6.418;2022-08-03T03:08:45;4.60;;;4.22;;
33900;SDS011;20193;49.810;6.418;2022-08-03T03:11:12;4.63;;;4.22;;
33900;SDS011;20193;49.810;6.418;2022-08-03T03:13:39;4.50;;;4.20;;
33900;SDS011;20193;49.810;6.418;2022-08-03T03:16:06;4.10;;;3.90;;
33900;SDS011;20193;49.810;6.418;2022-08-03T03:18:33;5.15;;;4.68;;
33900;SDS011;20193;49.810;6.418;2022-08-03T03:20:59;4.75;;;4.50;;
33900;SDS011;20193;49.810;6.418;2022-08-03T03:23:27;5.00;;;4.70;;
33900;SDS011;20193;49.810;6.418;2022-08-03T03:25:54;5.53;;;4.68;;
33900;SDS011;20193;49.810;6.418;2022-08-03T03:28:22;4.97;;;4.68;;
33900;SDS011;20193;49.810;6.418;2022-08-03T03:30:49;5.03;;;4.70;;
33900;SDS011;20193;49.810;6.418;2022-08-03T03:33:15;5.32;;;5.03;;
33900;SDS011;20193;49.810;6.418;2022-08-03T03:35:41;4.95;;;4.65;;
33900;SDS011;20193;49.810;6.418;2022-08-03T03:38:09;5.63;;;5.32;;
33900;SDS011;20193;49.810;6.418;2022-08-03T03:40:35;5.45;;;5.07;;
33900;SDS011;20193;49.810;6.418;2022-08-03T03:43:08;9.38;;;5.00;;
33900;SDS011;20193;49.810;6.418;2022-08-03T03:45:35;5.20;;;4.80;;
33900;SDS011;20193;49.810;6.418;2022-08-03T03:48:05;5.35;;;5.00;;
33900;SDS011;20193;49.810;6.418;2022-08-03T03:50:32;5.55;;;5.25;;
33900;SDS011;20193;49.810;6.418;2022-08-03T03:52:59;6.50;;;6.10;;
33900;SDS011;20193;49.810;6.418;2022-08-03T03:55:25;6.00;;;5.70;;
33900;SDS011;20193;49.810;6.418;2022-08-03T03:57:51;6.05;;;5.65;;
33900;SDS011;20193;49.810;6.418;2022-08-03T04:00:17;6.00;;;5.65;;
33900;SDS011;20193;49.810;6.418;2022-08-03T04:02:43;5.90;;;5.55;;
33900;SDS011;20193;49.810;6.418;2022-08-03T04:05:10;5.95;;;5.55;;
33900;SDS011;20193;49.810;6.418;2022-08-03T04:07:57;5.55;;;5.25;;
33900;SDS011;20193;49.810;6.418;2022-08-03T04:10:53;5.50;;;5.15;;
33900;SDS011;20193;49.810;6.418;2022-08-03T04:13:32;5.55;;;5.03;;
33900;SDS011;20193;49.810;6.418;2022-08-03T04:16:03;5.97;;;5.68;;
33900;SDS011;20193;49.810;6.418;2022-08-03T04:18:31;6.32;;;5.82;;
33900;SDS011;20193;49.810;6.418;2022-08-03T04:21:02;7.13;;;6.40;;
33900;SDS011;20193;49.810;6.418;2022-08-03T04:23:33;6.18;;;5.78;;
33900;SDS011;20193;49.810;6.418;2022-08-03T04:26:02;6.72;;;6.22;;
33900;SDS011;20193;49.810;6.418;2022-08-03T04:28:31;6.28;;;5.88;;
33900;SDS011;20193;49.810;6.418;2022-08-03T04:30:59;6.38;;;5.97;;
33900;SDS011;20193;49.810;6.418;2022-08-03T04:33:27;6.88;;;6.47;;
33900;SDS011;20193;49.810;6.418;2022-08-03T04:35:54;7.00;;;6.60;;
33900;SDS011;20193;49.810;6.418;2022-08-03T04:38:23;6.88;;;6.38;;
33900;SDS011;20193;49.810;6.418;2022-08-03T04:40:49;6.63;;;6.10;;
33900;SDS011;20193;49.810;6.418;2022-08-03T04:43:16;6.68;;;6.07;;
33900;SDS011;20193;49.810;6.418;2022-08-03T04:45:43;7.07;;;6.68;;
33900;SDS011;20193;49.810;6.418;2022-08-03T04:48:12;7.22;;;6.82;;
33900;SDS011;20193;49.810;6.418;2022-08-03T04:50:39;6.85;;;6.45;;
33900;SDS011;20193;49.810;6.418;2022-08-03T04:53:06;7.00;;;6.60;;
33900;SDS011;20193;49.810;6.418;2022-08-03T04:55:33;7.68;;;7.03;;
33900;SDS011;20193;49.810;6.418;2022-08-03T04:57:59;6.95;;;6.47;;
33900;SDS011;20193;49.810;6.418;2022-08-03T05:00:27;7.38;;;6.90;;
33900;SDS011;20193;49.810;6.418;2022-08-03T05:02:53;7.22;;;6.82;;
33900;SDS011;20193;49.810;6.418;2022-08-03T05:05:19;7.25;;;6.80;;
33900;SDS011;20193;49.810;6.418;2022-08-03T05:07:45;7.60;;;7.10;;
33900;SDS011;20193;49.810;6.418;2022-08-03T05:10:11;7.78;;;7.38;;
33900;SDS011;20193;49.810;6.418;2022-08-03T05:12:38;7.22;;;6.70;;
33900;SDS011;20193;49.810;6.418;2022-08-03T05:15:04;7.95;;;7.25;;
33900;SDS011;20193;49.810;6.418;2022-08-03T05:17:31;8.52;;;7.85;;
33900;SDS011;20193;49.810;6.418;2022-08-03T05:19:58;7.55;;;7.05;;
33900;SDS011;20193;49.810;6.418;2022-08-03T05:22:24;8.20;;;7.63;;
33900;SDS011;20193;49.810;6.418;2022-08-03T05:24:50;7.97;;;7.30;;
33900;SDS011;20193;49.810;6.418;2022-08-03T05:27:16;7.40;;;6.90;;
33900;SDS011;20193;49.810;6.418;2022-08-03T05:29:46;7.65;;;6.93;;
33900;SDS011;20193;49.810;6.418;2022-08-03T05:32:13;7.05;;;6.65;;
33900;SDS011;20193;49.810;6.418;2022-08-03T05:34:42;7.45;;;6.97;;
33900;SDS011;20193;49.810;6.418;2022-08-03T05:37:08;7.10;;;6.60;;
33900;SDS011;20193;49.810;6.418;2022-08-03T05:39:34;7.28;;;6.88;;
33900;SDS011;20193;49.810;6.418;2022-08-03T05:42:00;7.65;;;6.35;;
33900;SDS011;20193;49.810;6.418;2022-08-03T05:44:26;7.55;;;6.95;;
33900;SDS011;20193;49.810;6.418;2022-08-03T05:46:52;7.43;;;7.03;;
33900;SDS011;20193;49.810;6.418;2022-08-03T05:49:18;7.72;;;7.18;;
33900;SDS011;20193;49.810;6.418;2022-08-03T05:51:44;7.80;;;7.30;;
33900;SDS011;20193;49.810;6.418;2022-08-03T05:54:10;7.80;;;7.30;;
33900;SDS011;20193;49.810;6.418;2022-08-03T05:56:36;7.47;;;6.82;;
33900;SDS011;20193;49.810;6.418;2022-08-03T05:59:01;7.32;;;6.80;;
33900;SDS011;20193;49.810;6.418;2022-08-03T06:01:30;7.25;;;6.65;;
33900;SDS011;20193;49.810;6.418;2022-08-03T06:03:57;6.75;;;5.90;;
33900;SDS011;20193;49.810;6.418;2022-08-03T06:06:23;5.65;;;5.32;;
33900;SDS011;20193;49.810;6.418;2022-08-03T06:08:49;5.50;;;5.20;;
33900;SDS011;20193;49.810;6.418;2022-08-03T06:11:14;8.88;;;5.70;;
33900;SDS011;20193;49.810;6.418;2022-08-03T06:13:40;5.03;;;4.57;;
33900;SDS011;20193;49.810;6.418;2022-08-03T06:16:06;5.97;;;4.70;;
33900;SDS011;20193;49.810;6.418;2022-08-03T06:18:32;4.75;;;4.28;;
33900;SDS011;20193;49.810;6.418;2022-08-03T06:20:58;5.35;;;4.88;;
33900;SDS011;20193;49.810;6.418;2022-08-03T06:23:23;9.90;;;5.57;;
33900;SDS011;20193;49.810;6.418;2022-08-03T06:25:49;6.78;;;4.70;;
33900;SDS011;20193;49.810;6.418;2022-08-03T06:28:15;5.60;;;5.10;;
33900;SDS011;20193;49.810;6.418;2022-08-03T06:30:42;4.18;;;3.88;;
33900;SDS011;20193;49.810;6.418;2022-08-03T06:33:08;6.47;;;4.57;;
33900;SDS011;20193;49.810;6.418;2022-08-03T06:35:34;4.45;;;4.15;;
33900;SDS011;20193;49.810;6.418;2022-08-03T06:38:00;6.45;;;4.10;;
33900;SDS011;20193;49.810;6.418;2022-08-03T06:40:25;8.40;;;4.88;;
33900;SDS011;20193;49.810;6.418;2022-08-03T06:42:56;6.05;;;3.83;;
33900;SDS011;20193;49.810;6.418;2022-08-03T06:45:22;3.55;;;3.25;;
33900;SDS011;20193;49.810;6.418;2022-08-03T06:47:58;6.53;;;4.30;;
33900;SDS011;20193;49.810;6.418;2022-08-03T06:50:28;4.40;;;4.00;;
33900;SDS011;20193;49.810;6.418;2022-08-03T06:52:53;5.13;;;4.72;;
33900;SDS011;20193;49.810;6.418;2022-08-03T06:55:19;4.18;;;3.88;;
33900;SDS011;20193;49.810;6.418;2022-08-03T06:57:45;4.10;;;3.80;;
33900;SDS011;20193;49.810;6.418;2022-08-03T07:00:10;4.25;;;4.00;;
33900;SDS011;20193;49.810;6.418;2022-08-03T07:02:37;4.47;;;4.07;;
33900;SDS011;20193;49.810;6.418;2022-08-03T07:05:03;10.98;;;4.70;;
33900;SDS011;20193;49.810;6.418;2022-08-03T07:07:29;12.18;;;4.10;;
33900;SDS011;20193;49.810;6.418;2022-08-03T07:09:55;4.35;;;4.00;;
33900;SDS011;20193;49.810;6.418;2022-08-03T07:12:21;4.45;;;4.15;;
33900;SDS011;20193;49.810;6.418;2022-08-03T07:14:46;4.55;;;4.25;;
33900;SDS011;20193;49.810;6.418;2022-08-03T07:17:27;4.60;;;4.30;;
33900;SDS011;20193;49.810;6.418;2022-08-03T07:19:57;5.45;;;4.18;;
33900;SDS011;20193;49.810;6.418;2022-08-03T07:22:23;4.72;;;4.43;;
33900;SDS011;20193;49.810;6.418;2022-08-03T07:24:49;5.10;;;4.68;;
33900;SDS011;20193;49.810;6.418;2022-08-03T07:27:15;5.65;;;5.35;;
33900;SDS011;20193;49.810;6.418;2022-08-03T07:29:41;6.90;;;4.78;;
33900;SDS011;20193;49.810;6.418;2022-08-03T07:32:07;5.03;;;4.57;;
33900;SDS011;20193;49.810;6.418;2022-08-03T07:34:32;4.53;;;4.15;;
33900;SDS011;20193;49.810;6.418;2022-08-03T07:36:58;4.50;;;4.15;;
33900;SDS011;20193;49.810;6.418;2022-08-03T07:39:23;4.68;;;4.43;;
33900;SDS011;20193;49.810;6.418;2022-08-03T07:41:49;5.00;;;4.45;;
33900;SDS011;20193;49.810;6.418;2022-08-03T07:44:16;5.63;;;4.43;;
33900;SDS011;20193;49.810;6.418;2022-08-03T07:46:44;5.80;;;4.80;;
33900;SDS011;20193;49.810;6.418;2022-08-03T07:49:10;4.68;;;4.28;;
33900;SDS011;20193;49.810;6.418;2022-08-03T07:51:36;5.30;;;4.90;;
33900;SDS011;20193;49.810;6.418;2022-08-03T07:54:04;5.80;;;4.75;;
33900;SDS011;20193;49.810;6.418;2022-08-03T07:56:30;4.68;;;4.28;;
33900;SDS011;20193;49.810;6.418;2022-08-03T07:58:56;4.65;;;4.30;;
33900;SDS011;20193;49.810;6.418;2022-08-03T08:01:22;4.85;;;4.53;;
33900;SDS011;20193;49.810;6.418;2022-08-03T08:03:48;4.85;;;4.55;;
33900;SDS011;20193;49.810;6.418;2022-08-03T08:06:15;4.63;;;4.35;;
33900;SDS011;20193;49.810;6.418;2022-08-03T08:08:41;5.03;;;4.72;;
33900;SDS011;20193;49.810;6.418;2022-08-03T08:11:07;5.15;;;4.60;;
33900;SDS011;20193;49.810;6.418;2022-08-03T08:13:33;5.25;;;4.93;;
33900;SDS011;20193;49.810;6.418;2022-08-03T08:15:59;5.15;;;4.72;;
33900;SDS011;20193;49.810;6.418;2022-08-03T08:18:25;6.30;;;4.82;;
33900;SDS011;20193;49.810;6.418;2022-08-03T08:20:53;5.25;;;4.95;;
33900;SDS011;20193;49.810;6.418;2022-08-03T08:23:19;5.57;;;5.18;;
33900;SDS011;20193;49.810;6.418;2022-08-03T08:25:51;5.15;;;4.85;;
33900;SDS011;20193;49.810;6.418;2022-08-03T08:28:21;6.22;;;5.63;;
33900;SDS011;20193;49.810;6.418;2022-08-03T08:30:47;4.65;;;4.45;;
33900;SDS011;20193;49.810;6.418;2022-08-03T08:33:12;5.05;;;4.30;;
33900;SDS011;20193;49.810;6.418;2022-08-03T08:35:38;5.32;;;4.82;;
33900;SDS011;20193;49.810;6.418;2022-08-03T08:38:04;5.70;;;4.75;;
33900;SDS011;20193;49.810;6.418;2022-08-03T08:40:30;4.15;;;3.90;;
33900;SDS011;20193;49.810;6.418;2022-08-03T08:42:55;4.50;;;4.18;;
33900;SDS011;20193;49.810;6.418;2022-08-03T08:45:21;5.25;;;4.85;;
33900;SDS011;20193;49.810;6.418;2022-08-03T08:47:47;6.30;;;4.38;;
33900;SDS011;20193;49.810;6.418;2022-08-03T08:50:17;4.47;;;4.07;;
33900;SDS011;20193;49.810;6.418;2022-08-03T08:52:45;4.55;;;4.15;;
33900;SDS011;20193;49.810;6.418;2022-08-03T08:55:13;5.43;;;4.55;;
33900;SDS011;20193;49.810;6.418;2022-08-03T08:57:46;4.45;;;4.15;;
33900;SDS011;20193;49.810;6.418;2022-08-03T09:00:14;4.40;;;4.20;;
33900;SDS011;20193;49.810;6.418;2022-08-03T09:02:41;4.30;;;4.10;;
33900;SDS011;20193;49.810;6.418;2022-08-03T09:05:14;4.82;;;4.40;;
33900;SDS011;20193;49.810;6.418;2022-08-03T09:07:42;4.47;;;4.18;;
33900;SDS011;20193;49.810;6.418;2022-08-03T09:10:10;4.45;;;4.05;;
33900;SDS011;20193;49.810;6.418;2022-08-03T09:12:38;4.72;;;4.43;;
33900;SDS011;20193;49.810;6.418;2022-08-03T09:15:20;4.20;;;3.80;;
33900;SDS011;20193;49.810;6.418;2022-08-03T09:17:46;4.07;;;3.80;;
33900;SDS011;20193;49.810;6.418;2022-08-03T09:20:12;4.97;;;4.28;;
33900;SDS011;20193;49.810;6.418;2022-08-03T09:22:50;3.70;;;3.50;;
33900;SDS011;20193;49.810;6.418;2022-08-03T09:25:17;5.35;;;4.00;;
33900;SDS011;20193;49.810;6.418;2022-08-03T09:27:43;3.60;;;3.40;;
33900;SDS011;20193;49.810;6.418;2022-08-03T09:30:14;4.57;;;4.20;;
33900;SDS011;20193;49.810;6.418;2022-08-03T09:32:40;3.78;;;3.40;;
33900;SDS011;20193;49.810;6.418;2022-08-03T09:35:08;4.07;;;3.63;;
33900;SDS011;20193;49.810;6.418;2022-08-03T09:37:35;5.07;;;3.80;;
33900;SDS011;20193;49.810;6.418;2022-08-03T09:40:00;5.13;;;3.85;;
33900;SDS011;20193;49.810;6.418;2022-08-03T09:42:26;5.53;;;3.25;;
33900;SDS011;20193;49.810;6.418;2022-08-03T09:44:52;19.95;;;5.13;;
33900;SDS011;20193;49.810;6.418;2022-08-03T09:52:36;3.83;;;3.53;;
33900;SDS011;20193;49.810;6.418;2022-08-03T09:55:12;3.65;;;3.35;;
33900;SDS011;20193;49.810;6.418;2022-08-03T09:57:39;4.28;;;3.88;;
33900;SDS011;20193;49.810;6.418;2022-08-03T10:00:09;3.85;;;3.50;;
33900;SDS011;20193;49.810;6.418;2022-08-03T10:02:40;4.40;;;4.10;;
33900;SDS011;20193;49.810;6.418;2022-08-03T10:05:07;3.97;;;3.75;;
33900;SDS011;20193;49.810;6.418;2022-08-03T10:07:41;4.18;;;3.80;;
33900;SDS011;20193;49.810;6.418;2022-08-03T10:10:08;4.18;;;3.78;;
33900;SDS011;20193;49.810;6.418;2022-08-03T10:12:34;3.67;;;3.47;;
33900;SDS011;20193;49.810;6.418;2022-08-03T10:15:02;3.92;;;3.60;;
33900;SDS011;20193;49.810;6.418;2022-08-03T10:17:28;3.97;;;3.67;;
33900;SDS011;20193;49.810;6.418;2022-08-03T10:19:53;3.35;;;3.15;;
33900;SDS011;20193;49.810;6.418;2022-08-03T10:22:22;3.70;;;3.40;;
33900;SDS011;20193;49.810;6.418;2022-08-03T10:27:20;4.15;;;3.83;;
33900;SDS011;20193;49.810;6.418;2022-08-03T10:29:52;3.70;;;3.50;;
33900;SDS011;20193;49.810;6.418;2022-08-03T10:32:29;3.10;;;3.00;;
33900;SDS011;20193;49.810;6.418;2022-08-03T10:35:03;5.07;;;3.47;;
33900;SDS011;20193;49.810;6.418;2022-08-03T10:37:51;3.83;;;3.63;;
33900;SDS011;20193;49.810;6.418;2022-08-03T10:40:23;3.42;;;3.22;;
33900;SDS011;20193;49.810;6.418;2022-08-03T10:42:51;3.40;;;3.05;;
33900;SDS011;20193;49.810;6.418;2022-08-03T10:45:21;3.75;;;3.55;;
33900;SDS011;20193;49.810;6.418;2022-08-03T10:47:50;3.97;;;3.60;;
33900;SDS011;20193;49.810;6.418;2022-08-03T10:50:16;4.15;;;3.78;;
33900;SDS011;20193;49.810;6.418;2022-08-03T10:52:56;3.08;;;2.97;;
33900;SDS011;20193;49.810;6.418;2022-08-03T11:01:08;3.30;;;3.10;;
33900;SDS011;20193;49.810;6.418;2022-08-03T11:06:19;3.63;;;3.33;;
33900;SDS011;20193;49.810;6.418;2022-08-03T11:08:49;3.05;;;2.92;;
33900;SDS011;20193;49.810;6.418;2022-08-03T11:11:35;3.38;;;3.17;;
33900;SDS011;20193;49.810;6.418;2022-08-03T11:14:03;3.55;;;3.25;;
33900;SDS011;20193;49.810;6.418;2022-08-03T11:16:42;3.40;;;3.17;;
33900;SDS011;20193;49.810;6.418;2022-08-03T11:19:17;3.63;;;3.35;;
33900;SDS011;20193;49.810;6.418;2022-08-03T11:35:06;2.75;;;2.60;;
33900;SDS011;20193;49.810;6.418;2022-08-03T11:43:49;3.13;;;2.92;;
33900;SDS011;20193;49.810;6.418;2022-08-03T11:45:57;3.05;;;2.80;;
33900;SDS011;20193;49.810;6.418;2022-08-03T11:48:34;5.22;;;3.60;;
33900;SDS011;20193;49.810;6.418;2022-08-03T11:53:52;2.97;;;2.80;;
33900;SDS011;20193;49.810;6.418;2022-08-03T11:56:23;3.10;;;2.90;;
33900;SDS011;20193;49.810;6.418;2022-08-03T11:58:51;2.97;;;2.78;;
33900;SDS011;20193;49.810;6.418;2022-08-03T12:01:18;3.75;;;3.45;;
33900;SDS011;20193;49.810;6.418;2022-08-03T12:03:45;3.47;;;3.17;;
33900;SDS011;20193;49.810;6.418;2022-08-03T12:06:12;3.17;;;3.00;;
33900;SDS011;20193;49.810;6.418;2022-08-03T12:08:39;3.08;;;2.88;;
33900;SDS011;20193;49.810;6.418;2022-08-03T12:11:09;3.03;;;2.92;;
33900;SDS011;20193;49.810;6.418;2022-08-03T12:13:37;3.40;;;3.10;;
33900;SDS011;20193;49.810;6.418;2022-08-03T12:16:08;4.65;;;3.50;;
33900;SDS011;20193;49.810;6.418;2022-08-03T12:18:34;3.35;;;3.15;;
33900;SDS011;20193;49.810;6.418;2022-08-03T12:21:09;3.30;;;3.10;;
33900;SDS011;20193;49.810;6.418;2022-08-03T12:23:36;6.38;;;3.33;;
33900;SDS011;20193;49.810;6.418;2022-08-03T12:26:06;3.20;;;3.10;;
33900;SDS011;20193;49.810;6.418;2022-08-03T12:28:34;3.72;;;3.42;;
33900;SDS011;20193;49.810;6.418;2022-08-03T12:31:03;3.72;;;3.15;;
33900;SDS011;20193;49.810;6.418;2022-08-03T12:33:31;3.50;;;3.30;;
33900;SDS011;20193;49.810;6.418;2022-08-03T12:36:17;3.45;;;3.20;;
33900;SDS011;20193;49.810;6.418;2022-08-03T12:38:43;3.65;;;3.40;;
33900;SDS011;20193;49.810;6.418;2022-08-03T12:41:32;4.10;;;3.60;;
33900;SDS011;20193;49.810;6.418;2022-08-03T12:44:02;8.57;;;4.18;;
33900;SDS011;20193;49.810;6.418;2022-08-03T12:46:31;4.53;;;3.10;;
33900;SDS011;20193;49.810;6.418;2022-08-03T12:49:11;3.08;;;2.90;;
33900;SDS011;20193;49.810;6.418;2022-08-03T12:54:09;3.08;;;2.60;;
33900;SDS011;20193;49.810;6.418;2022-08-03T12:57:06;3.30;;;3.10;;
33900;SDS011;20193;49.810;6.418;2022-08-03T12:59:38;5.43;;;3.08;;
33900;SDS011;20193;49.810;6.418;2022-08-03T13:04:49;3.38;;;3.08;;
33900;SDS011;20193;49.810;6.418;2022-08-03T13:07:16;3.50;;;3.20;;
33900;SDS011;20193;49.810;6.418;2022-08-03T13:09:52;3.40;;;3.10;;
33900;SDS011;20193;49.810;6.418;2022-08-03T13:12:22;3.00;;;2.80;;
33900;SDS011;20193;49.810;6.418;2022-08-03T13:14:50;4.07;;;2.97;;
33900;SDS011;20193;49.810;6.418;2022-08-03T13:17:17;3.17;;;2.95;;
33900;SDS011;20193;49.810;6.418;2022-08-03T13:19:44;5.68;;;5.28;;
33900;SDS011;20193;49.810;6.418;2022-08-03T13:24:47;3.88;;;2.90;;
33900;SDS011;20193;49.810;6.418;2022-08-03T13:27:14;3.55;;;3.30;;
33900;SDS011;20193;49.810;6.418;2022-08-03T13:29:40;3.45;;;3.25;;
33900;SDS011;20193;49.810;6.418;2022-08-03T13:32:07;3.88;;;3.42;;
33900;SDS011;20193;49.810;6.418;2022-08-03T13:34:33;3.42;;;3.13;;
33900;SDS011;20193;49.810;6.418;2022-08-03T13:36:59;3.50;;;3.17;;
33900;SDS011;20193;49.810;6.418;2022-08-03T13:39:25;3.00;;;2.80;;
33900;SDS011;20193;49.810;6.418;2022-08-03T13:41:51;3.20;;;3.00;;
33900;SDS011;20193;49.810;6.418;2022-08-03T13:44:17;3.03;;;2.85;;
33900;SDS011;20193;49.810;6.418;2022-08-03T13:46:43;3.50;;;3.30;;
33900;SDS011;20193;49.810;6.418;2022-08-03T13:49:10;3.40;;;3.20;;
33900;SDS011;20193;49.810;6.418;2022-08-03T13:51:35;3.20;;;3.00;;
33900;SDS011;20193;49.810;6.418;2022-08-03T13:54:01;3.80;;;3.50;;
33900;SDS011;20193;49.810;6.418;2022-08-03T13:56:27;3.20;;;3.00;;
33900;SDS011;20193;49.810;6.418;2022-08-03T13:58:54;3.30;;;3.10;;
33900;SDS011;20193;49.810;6.418;2022-08-03T14:01:20;3.50;;;3.30;;
33900;SDS011;20193;49.810;6.418;2022-08-03T14:03:46;3.47;;;3.22;;
33900;SDS011;20193;49.810;6.418;2022-08-03T14:06:14;3.10;;;2.90;;
33900;SDS011;20193;49.810;6.418;2022-08-03T14:08:40;4.60;;;3.30;;
33900;SDS011;20193;49.810;6.418;2022-08-03T14:11:05;2.72;;;2.53;;
33900;SDS011;20193;49.810;6.418;2022-08-03T14:13:31;3.75;;;3.40;;
33900;SDS011;20193;49.810;6.418;2022-08-03T14:15:57;3.42;;;3.13;;
33900;SDS011;20193;49.810;6.418;2022-08-03T14:18:22;3.92;;;3.05;;
33900;SDS011;20193;49.810;6.418;2022-08-03T14:20:48;3.30;;;3.00;;
33900;SDS011;20193;49.810;6.418;2022-08-03T14:23:14;3.40;;;3.13;;
33900;SDS011;20193;49.810;6.418;2022-08-03T14:25:40;3.85;;;3.03;;
33900;SDS011;20193;49.810;6.418;2022-08-03T14:28:06;3.25;;;3.08;;
33900;SDS011;20193;49.810;6.418;2022-08-03T14:30:32;5.05;;;2.80;;
33900;SDS011;20193;49.810;6.418;2022-08-03T14:32:59;2.90;;;2.70;;
33900;SDS011;20193;49.810;6.418;2022-08-03T14:35:25;3.13;;;2.92;;
33900;SDS011;20193;49.810;6.418;2022-08-03T14:37:51;3.13;;;2.92;;
33900;SDS011;20193;49.810;6.418;2022-08-03T14:40:17;3.72;;;2.83;;
33900;SDS011;20193;49.810;6.418;2022-08-03T14:42:43;3.20;;;2.92;;
33900;SDS011;20193;49.810;6.418;2022-08-03T14:45:09;2.70;;;2.60;;
33900;SDS011;20193;49.810;6.418;2022-08-03T14:47:35;3.30;;;3.10;;
33900;SDS011;20193;49.810;6.418;2022-08-03T14:50:00;3.20;;;2.90;;
33900;SDS011;20193;49.810;6.418;2022-08-03T14:52:29;3.60;;;2.85;;
33900;SDS011;20193;49.810;6.418;2022-08-03T14:54:54;3.28;;;3.08;;
33900;SDS011;20193;49.810;6.418;2022-08-03T14:57:20;3.50;;;3.30;;
33900;SDS011;20193;49.810;6.418;2022-08-03T14:59:46;3.15;;;2.95;;
33900;SDS011;20193;49.810;6.418;2022-08-03T15:02:12;3.42;;;3.17;;
33900;SDS011;20193;49.810;6.418;2022-08-03T15:04:38;3.20;;;3.00;;
33900;SDS011;20193;49.810;6.418;2022-08-03T15:07:04;4.00;;;3.00;;
33900;SDS011;20193;49.810;6.418;2022-08-03T15:09:29;3.50;;;3.22;;
33900;SDS011;20193;49.810;6.418;2022-08-03T15:11:55;3.03;;;2.85;;
33900;SDS011;20193;49.810;6.418;2022-08-03T15:14:21;3.45;;;3.15;;
33900;SDS011;20193;49.810;6.418;2022-08-03T15:16:46;3.47;;;3.28;;
33900;SDS011;20193;49.810;6.418;2022-08-03T15:19:12;2.78;;;2.67;;
33900;SDS011;20193;49.810;6.418;2022-08-03T15:21:37;3.40;;;3.10;;
33900;SDS011;20193;49.810;6.418;2022-08-03T15:24:03;3.50;;;3.20;;
33900;SDS011;20193;49.810;6.418;2022-08-03T15:26:29;2.88;;;2.55;;
33900;SDS011;20193;49.810;6.418;2022-08-03T15:28:56;3.00;;;2.85;;
33900;SDS011;20193;49.810;6.418;2022-08-03T15:31:22;4.78;;;3.10;;
33900;SDS011;20193;49.810;6.418;2022-08-03T15:33:48;3.38;;;3.17;;
33900;SDS011;20193;49.810;6.418;2022-08-03T15:36:18;2.70;;;2.60;;
33900;SDS011;20193;49.810;6.418;2022-08-03T15:38:44;2.67;;;2.47;;
33900;SDS011;20193;49.810;6.418;2022-08-03T15:41:13;3.17;;;2.88;;
33900;SDS011;20193;49.810;6.418;2022-08-03T15:43:39;4.13;;;2.90;;
33900;SDS011;20193;49.810;6.418;2022-08-03T15:46:05;2.92;;;2.70;;
33900;SDS011;20193;49.810;6.418;2022-08-03T15:48:31;5.03;;;3.53;;
33900;SDS011;20193;49.810;6.418;2022-08-03T15:50:57;4.20;;;3.00;;
33900;SDS011;20193;49.810;6.418;2022-08-03T15:53:22;3.20;;;3.00;;